createdAt,value
2018-11-21T00:00:51.307Z,961.90
2018-11-21T00:01:51.343Z,961.89
2018-11-21T00:02:51.362Z,961.89
2018-11-21T00:03:51.401Z,961.87
2018-11-21T00:04:51.439Z,961.84
2018-11-21T00:05:51.476Z,961.85
2018-11-21T00:06:51.528Z,961.81
2018-11-21T00:07:51.554Z,961.81
2018-11-21T00:08:51.592Z,961.74
2018-11-21T00:09:51.630Z,961.78
2018-11-21T00:10:51.765Z,961.78
2018-11-21T00:11:51.739Z,961.73
2018-11-21T00:12:51.786Z,961.80
2018-11-21T00:13:51.782Z,961.74
2018-11-21T00:14:51.822Z,961.75
2018-11-21T00:15:51.854Z,961.77
2018-11-21T00:16:51.891Z,961.80
2018-11-21T00:17:51.946Z,961.81
2018-11-21T00:18:51.968Z,961.78
2018-11-21T00:19:52.004Z,961.80
2018-11-21T00:20:52.062Z,961.78
2018-11-21T00:21:52.081Z,961.81
2018-11-21T00:22:52.137Z,961.81
2018-11-21T00:23:52.182Z,961.83
2018-11-21T00:24:52.209Z,961.77
2018-11-21T00:25:52.229Z,961.82
2018-11-21T00:26:52.268Z,961.81
2018-11-21T00:27:52.317Z,961.76
2018-11-21T00:28:52.376Z,961.82
2018-11-21T00:29:52.384Z,961.79
2018-11-21T00:30:52.420Z,961.78
2018-11-21T00:31:52.457Z,961.75
2018-11-21T00:32:52.500Z,961.73
2018-11-21T00:33:52.556Z,961.70
2018-11-21T00:34:52.578Z,961.75
2018-11-21T00:35:52.727Z,961.69
2018-11-21T00:36:52.647Z,961.69
2018-11-21T00:37:52.682Z,961.72
2018-11-21T00:38:52.746Z,961.71
2018-11-21T00:39:52.770Z,961.69
2018-11-21T00:40:52.796Z,961.70
2018-11-21T00:41:52.861Z,961.70
2018-11-21T00:42:52.876Z,961.72
2018-11-21T00:43:52.913Z,961.73
2018-11-21T00:44:52.946Z,961.76
2018-11-21T00:45:52.988Z,961.81
2018-11-21T00:46:53.041Z,961.79
2018-11-21T00:47:53.090Z,961.87
2018-11-21T00:48:53.097Z,961.81
2018-11-21T00:49:53.134Z,961.86
2018-11-21T00:50:53.172Z,961.86
2018-11-21T00:51:53.217Z,961.88
2018-11-21T00:52:53.278Z,961.85
2018-11-21T00:53:53.293Z,961.81
2018-11-21T00:54:53.323Z,961.77
2018-11-21T00:55:53.362Z,961.79
2018-11-21T00:56:53.424Z,961.76
2018-11-21T00:57:53.609Z,961.76
2018-11-21T00:58:53.475Z,961.74
2018-11-21T00:59:53.525Z,961.77
2018-11-21T01:00:53.549Z,961.79
2018-11-21T01:01:53.588Z,961.81
2018-11-21T01:02:53.644Z,961.81
2018-11-21T01:03:53.681Z,961.89
2018-11-21T01:04:53.706Z,961.86
2018-11-21T01:05:53.740Z,961.86
2018-11-21T01:06:53.773Z,961.91
2018-11-21T01:07:53.810Z,961.88
2018-11-21T01:08:53.870Z,961.89
2018-11-21T01:09:53.891Z,961.92
2018-11-21T01:10:53.927Z,961.97
2018-11-21T01:11:53.964Z,961.95
2018-11-21T01:12:54.020Z,961.98
2018-11-21T01:13:54.033Z,962.00
2018-11-21T01:14:54.072Z,962.01
2018-11-21T01:15:54.133Z,962.02
2018-11-21T01:16:54.150Z,962.08
2018-11-21T01:17:54.207Z,962.05
2018-11-21T01:18:54.317Z,962.05
2018-11-21T01:19:54.274Z,962.07
2018-11-21T01:20:54.300Z,962.11
2018-11-21T01:21:54.335Z,962.11
2018-11-21T01:22:54.371Z,962.10
2018-11-21T01:23:54.431Z,962.12
2018-11-21T01:24:54.446Z,962.18
2018-11-21T01:25:54.505Z,962.15
2018-11-21T01:26:54.531Z,962.19
2018-11-21T01:27:54.561Z,962.17
2018-11-21T01:28:54.618Z,962.20
2018-11-21T01:29:54.639Z,962.19
2018-11-21T01:30:54.686Z,962.23
2018-11-21T01:31:54.706Z,962.22
2018-11-21T01:32:54.742Z,962.24
2018-11-21T01:33:54.781Z,962.28
2018-11-21T01:34:54.816Z,962.27
2018-11-21T01:35:54.880Z,962.27
2018-11-21T01:36:54.922Z,962.22
2018-11-21T01:37:54.927Z,962.22
2018-11-21T01:38:54.972Z,962.23
2018-11-21T01:39:55.006Z,962.28
2018-11-21T01:40:55.053Z,962.24
2018-11-21T01:41:55.077Z,962.24
2018-11-21T01:42:55.113Z,962.21
2018-11-21T01:43:55.244Z,962.26
2018-11-21T01:44:55.196Z,962.27
2018-11-21T01:45:55.247Z,962.26
2018-11-21T01:46:55.269Z,962.32
2018-11-21T01:47:55.300Z,962.32
2018-11-21T01:48:55.355Z,962.34
2018-11-21T01:49:55.375Z,962.36
2018-11-21T01:50:55.411Z,962.34
2018-11-21T01:51:55.450Z,962.33
2018-11-21T01:52:55.509Z,962.32
2018-11-21T01:53:55.521Z,962.33
2018-11-21T01:54:55.558Z,962.31
2018-11-21T01:55:55.597Z,962.32
2018-11-21T01:56:55.642Z,962.34
2018-11-21T01:57:55.690Z,962.32
2018-11-21T01:58:55.732Z,962.29
2018-11-21T01:59:55.744Z,962.29
2018-11-21T02:00:55.778Z,962.26
2018-11-21T02:01:55.828Z,962.24
2018-11-21T02:02:55.873Z,962.24
2018-11-21T02:03:55.894Z,962.26
2018-11-21T02:04:55.938Z,962.24
2018-11-21T02:05:55.969Z,962.23
2018-11-21T02:06:56.003Z,962.22
2018-11-21T02:07:56.061Z,962.27
2018-11-21T02:08:56.076Z,962.27
2018-11-21T02:09:56.116Z,962.26
2018-11-21T02:10:56.166Z,962.21
2018-11-21T02:11:56.192Z,962.25
2018-11-21T02:12:56.223Z,962.28
2018-11-21T02:13:56.259Z,962.28
2018-11-21T02:14:56.321Z,962.32
2018-11-21T02:15:56.334Z,962.36
2018-11-21T02:16:56.372Z,962.39
2018-11-21T02:17:56.405Z,962.40
2018-11-21T02:18:56.445Z,962.37
2018-11-21T02:19:56.564Z,962.42
2018-11-21T02:20:56.521Z,962.36
2018-11-21T02:21:56.565Z,962.46
2018-11-21T02:22:56.590Z,962.46
2018-11-21T02:23:56.631Z,962.50
2018-11-21T02:24:56.693Z,962.48
2018-11-21T02:25:56.702Z,962.49
2018-11-21T02:26:56.847Z,962.47
2018-11-21T02:27:56.780Z,962.48
2018-11-21T02:28:56.817Z,962.51
2018-11-21T02:29:58.645Z,962.53
2018-11-21T02:30:56.907Z,962.53
2018-11-21T02:31:56.928Z,962.55
2018-11-21T02:32:56.978Z,962.54
2018-11-21T02:33:57.003Z,962.51
2018-11-21T02:34:57.033Z,962.51
2018-11-21T02:35:57.101Z,962.51
2018-11-21T02:36:57.110Z,962.53
2018-11-21T02:37:57.156Z,962.52
2018-11-21T02:38:57.191Z,962.52
2018-11-21T02:39:57.216Z,962.51
2018-11-21T02:40:57.283Z,962.53
2018-11-21T02:41:57.294Z,962.50
2018-11-21T02:42:57.334Z,962.50
2018-11-21T02:43:57.364Z,962.51
2018-11-21T02:44:57.458Z,962.48
2018-11-21T02:45:57.456Z,962.50
2018-11-21T02:46:57.494Z,962.46
2018-11-21T02:47:57.532Z,962.54
2018-11-21T02:48:57.551Z,962.57
2018-11-21T02:49:57.588Z,962.54
2018-11-21T02:50:57.622Z,962.58
2018-11-21T02:51:57.805Z,962.57
2018-11-21T02:52:57.710Z,962.56
2018-11-21T02:53:57.764Z,962.56
2018-11-21T02:54:57.771Z,962.53
2018-11-21T02:55:57.804Z,962.56
2018-11-21T02:56:57.838Z,962.52
2018-11-21T02:57:57.879Z,962.55
2018-11-21T02:58:57.939Z,962.57
2018-11-21T02:59:57.950Z,962.51
2018-11-21T03:00:57.992Z,962.53
2018-11-21T03:01:58.027Z,962.50
2018-11-21T03:02:58.076Z,962.50
2018-11-21T03:03:58.120Z,962.54
2018-11-21T03:04:58.137Z,962.54
2018-11-21T03:05:58.187Z,962.58
2018-11-21T03:06:58.208Z,962.61
2018-11-21T03:07:58.242Z,962.61
2018-11-21T03:08:58.304Z,962.62
2018-11-21T03:09:58.474Z,962.62
2018-11-21T03:10:58.353Z,962.62
2018-11-21T03:11:58.399Z,962.62
2018-11-21T03:12:58.427Z,962.59
2018-11-21T03:13:58.468Z,962.61
2018-11-21T03:14:58.525Z,962.58
2018-11-21T03:15:58.582Z,962.60
2018-11-21T03:16:58.591Z,962.64
2018-11-21T03:17:58.615Z,962.64
2018-11-21T03:18:58.645Z,962.70
2018-11-21T03:19:58.685Z,962.73
2018-11-21T03:20:58.758Z,962.74
2018-11-21T03:21:58.754Z,962.73
2018-11-21T03:22:58.790Z,962.77
2018-11-21T03:23:58.826Z,962.73
2018-11-21T03:24:58.865Z,962.73
2018-11-21T03:25:58.928Z,962.76
2018-11-21T03:26:58.969Z,962.71
2018-11-21T03:27:58.975Z,962.73
2018-11-21T03:28:59.020Z,962.72
2018-11-21T03:29:59.048Z,962.76
2018-11-21T03:30:59.090Z,962.77
2018-11-21T03:31:59.160Z,962.78
2018-11-21T03:32:59.162Z,962.76
2018-11-21T03:33:59.192Z,962.80
2018-11-21T03:34:59.230Z,962.79
2018-11-21T03:35:59.267Z,962.80
2018-11-21T03:36:59.328Z,962.78
2018-11-21T03:37:59.341Z,962.80
2018-11-21T03:38:59.374Z,962.79
2018-11-21T03:39:59.412Z,962.78
2018-11-21T03:40:59.447Z,962.78
2018-11-21T03:41:59.512Z,962.78
2018-11-21T03:42:59.555Z,962.77
2018-11-21T03:43:59.557Z,962.76
2018-11-21T03:44:59.596Z,962.72
2018-11-21T03:45:59.643Z,962.73
2018-11-21T03:46:59.667Z,962.70
2018-11-21T03:47:59.724Z,962.73
2018-11-21T03:48:59.741Z,962.72
2018-11-21T03:49:59.805Z,962.73
2018-11-21T03:50:59.813Z,962.71
2018-11-21T03:51:59.851Z,962.70
2018-11-21T03:53:00.025Z,962.71
2018-11-21T03:53:59.923Z,962.74
2018-11-21T03:54:59.973Z,962.78
2018-11-21T03:55:59.999Z,962.78
2018-11-21T03:57:00.047Z,962.82
2018-11-21T03:58:00.091Z,962.82
2018-11-21T03:59:00.125Z,962.88
2018-11-21T04:00:00.146Z,962.87
2018-11-21T04:01:00.180Z,962.94
2018-11-21T04:02:00.216Z,962.94
2018-11-21T04:03:00.250Z,962.98
2018-11-21T04:04:00.322Z,962.97
2018-11-21T04:05:00.349Z,963.02
2018-11-21T04:06:00.359Z,963.07
2018-11-21T04:07:00.398Z,963.06
2018-11-21T04:08:00.434Z,963.04
2018-11-21T04:09:00.475Z,963.06
2018-11-21T04:10:00.524Z,963.09
2018-11-21T04:11:00.605Z,963.09
2018-11-21T04:12:00.606Z,963.10
2018-11-21T04:13:00.629Z,963.14
2018-11-21T04:14:00.655Z,963.14
2018-11-21T04:15:00.719Z,963.19
2018-11-21T04:16:00.725Z,963.17
2018-11-21T04:17:00.769Z,963.20
2018-11-21T04:18:00.799Z,963.21
2018-11-21T04:19:00.860Z,963.20
2018-11-21T04:20:00.904Z,963.27
2018-11-21T04:21:00.911Z,963.27
2018-11-21T04:22:00.947Z,963.26
2018-11-21T04:23:00.980Z,963.28
2018-11-21T04:24:01.027Z,963.27
2018-11-21T04:25:01.092Z,963.28
2018-11-21T04:26:01.091Z,963.30
2018-11-21T04:27:01.153Z,963.29
2018-11-21T04:28:01.170Z,963.33
2018-11-21T04:29:01.243Z,963.34
2018-11-21T04:30:01.240Z,963.40
2018-11-21T04:31:01.276Z,963.36
2018-11-21T04:32:01.333Z,963.45
2018-11-21T04:33:01.350Z,963.40
2018-11-21T04:34:01.386Z,963.47
2018-11-21T04:35:01.418Z,963.47
2018-11-21T04:36:01.544Z,963.49
2018-11-21T04:37:01.512Z,963.46
2018-11-21T04:38:01.556Z,963.46
2018-11-21T04:39:01.566Z,963.48
2018-11-21T04:40:01.607Z,963.51
2018-11-21T04:41:01.647Z,963.56
2018-11-21T04:42:01.673Z,963.59
2018-11-21T04:43:01.739Z,963.57
2018-11-21T04:44:01.749Z,963.57
2018-11-21T04:45:01.782Z,963.63
2018-11-21T04:46:01.819Z,963.63
2018-11-21T04:47:01.860Z,963.66
2018-11-21T04:48:01.913Z,963.65
2018-11-21T04:49:01.931Z,963.66
2018-11-21T04:50:01.969Z,963.69
2018-11-21T04:51:02.009Z,963.69
2018-11-21T04:52:02.051Z,963.70
2018-11-21T04:53:02.098Z,963.70
2018-11-21T04:54:02.450Z,963.73
2018-11-21T04:55:02.154Z,963.72
2018-11-21T04:56:02.183Z,963.82
2018-11-21T04:57:02.219Z,963.80
2018-11-21T04:58:02.257Z,963.79
2018-11-21T04:59:02.317Z,963.82
2018-11-21T05:00:02.330Z,963.85
2018-11-21T05:01:02.363Z,963.84
2018-11-21T05:02:02.404Z,963.86
2018-11-21T05:03:02.442Z,963.89
2018-11-21T05:04:02.501Z,963.84
2018-11-21T05:05:02.510Z,963.85
2018-11-21T05:06:02.544Z,963.82
2018-11-21T05:07:02.585Z,963.86
2018-11-21T05:08:02.620Z,963.89
2018-11-21T05:09:02.692Z,963.91
2018-11-21T05:10:02.700Z,963.92
2018-11-21T05:11:02.750Z,963.93
2018-11-21T05:12:02.827Z,963.93
2018-11-21T05:13:02.804Z,963.87
2018-11-21T05:14:02.843Z,963.91
2018-11-21T05:15:02.879Z,963.92
2018-11-21T05:16:02.946Z,963.95
2018-11-21T05:17:02.952Z,963.95
2018-11-21T05:18:02.982Z,964.00
2018-11-21T05:19:03.026Z,964.01
2018-11-21T05:20:03.056Z,964.06
2018-11-21T05:21:03.115Z,964.07
2018-11-21T05:22:03.128Z,964.15
2018-11-21T05:23:03.167Z,964.18
2018-11-21T05:24:03.205Z,964.16
2018-11-21T05:25:03.242Z,964.22
2018-11-21T05:26:03.289Z,964.22
2018-11-21T05:27:03.329Z,964.26
2018-11-21T05:28:03.365Z,964.29
2018-11-21T05:29:03.427Z,964.24
2018-11-21T05:30:03.425Z,964.27
2018-11-21T05:31:03.454Z,964.27
2018-11-21T05:32:03.517Z,964.30
2018-11-21T05:33:03.543Z,964.28
2018-11-21T05:34:03.564Z,964.33
2018-11-21T05:35:03.601Z,964.31
2018-11-21T05:36:03.635Z,964.40
2018-11-21T05:37:03.738Z,964.40
2018-11-21T05:38:03.744Z,964.40
2018-11-21T05:39:03.746Z,964.41
2018-11-21T05:40:03.785Z,964.39
2018-11-21T05:41:03.820Z,964.37
2018-11-21T05:42:03.858Z,964.38
2018-11-21T05:43:03.926Z,964.41
2018-11-21T05:44:03.937Z,964.40
2018-11-21T05:45:03.969Z,964.43
2018-11-21T05:46:04.006Z,964.43
2018-11-21T05:47:04.043Z,964.48
2018-11-21T05:48:04.102Z,964.46
2018-11-21T05:49:04.112Z,964.50
2018-11-21T05:50:04.150Z,964.49
2018-11-21T05:51:04.188Z,964.50
2018-11-21T05:52:04.225Z,964.57
2018-11-21T05:53:04.292Z,964.55
2018-11-21T05:54:04.359Z,964.56
2018-11-21T05:55:04.389Z,964.59
2018-11-21T05:56:04.386Z,964.56
2018-11-21T05:57:04.408Z,964.55
2018-11-21T05:58:04.444Z,964.51
2018-11-21T05:59:04.507Z,964.50
2018-11-21T06:00:04.521Z,964.50
2018-11-21T06:01:04.561Z,964.55
2018-11-21T06:02:04.690Z,964.57
2018-11-21T06:03:04.628Z,964.58
2018-11-21T06:04:04.666Z,964.58
2018-11-21T06:05:04.730Z,964.58
2018-11-21T06:06:09.967Z,964.61
2018-11-21T06:07:04.779Z,964.58
2018-11-21T06:08:04.825Z,964.55
2018-11-21T06:09:04.849Z,964.56
2018-11-21T06:10:04.920Z,964.57
2018-11-21T06:11:04.931Z,964.54
2018-11-21T06:12:04.960Z,964.55
2018-11-21T06:13:05.024Z,964.57
2018-11-21T06:14:05.035Z,964.57
2018-11-21T06:15:05.107Z,964.57
2018-11-21T06:16:05.131Z,964.53
2018-11-21T06:17:05.159Z,964.57
2018-11-21T06:18:05.184Z,964.62
2018-11-21T06:19:05.220Z,964.66
2018-11-21T06:20:05.362Z,964.64
2018-11-21T06:21:05.341Z,964.69
2018-11-21T06:22:05.333Z,964.68
2018-11-21T06:23:05.393Z,964.72
2018-11-21T06:24:05.406Z,964.74
2018-11-21T06:25:05.448Z,964.72
2018-11-21T06:26:05.481Z,964.74
2018-11-21T06:27:05.518Z,964.75
2018-11-21T06:28:05.579Z,964.77
2018-11-21T06:29:05.597Z,964.82
2018-11-21T06:30:05.632Z,964.85
2018-11-21T06:31:05.667Z,964.87
2018-11-21T06:32:05.725Z,964.91
2018-11-21T06:33:05.771Z,964.88
2018-11-21T06:34:05.778Z,964.86
2018-11-21T06:35:05.817Z,964.86
2018-11-21T06:36:05.857Z,964.89
2018-11-21T06:37:05.893Z,964.89
2018-11-21T06:38:05.998Z,964.87
2018-11-21T06:39:05.974Z,964.84
2018-11-21T06:40:06.004Z,964.90
2018-11-21T06:41:06.043Z,964.94
2018-11-21T06:42:06.081Z,964.91
2018-11-21T06:43:06.137Z,964.94
2018-11-21T06:44:06.158Z,964.94
2018-11-21T06:45:06.207Z,964.94
2018-11-21T06:46:06.231Z,964.92
2018-11-21T06:47:06.269Z,964.95
2018-11-21T06:48:06.328Z,964.92
2018-11-21T06:49:06.343Z,964.90
2018-11-21T06:50:06.380Z,964.90
2018-11-21T06:51:06.439Z,964.87
2018-11-21T06:52:06.468Z,964.93
2018-11-21T06:53:06.497Z,964.91
2018-11-21T06:54:06.555Z,964.95
2018-11-21T06:55:06.564Z,964.96
2018-11-21T06:56:06.604Z,965.00
2018-11-21T06:57:06.651Z,965.03
2018-11-21T06:58:06.677Z,965.05
2018-11-21T06:59:06.744Z,965.07
2018-11-21T07:00:06.759Z,965.12
2018-11-21T07:01:06.792Z,965.14
2018-11-21T07:02:06.861Z,965.16
2018-11-21T07:03:06.869Z,965.18
2018-11-21T07:04:06.900Z,965.23
2018-11-21T07:05:06.960Z,965.24
2018-11-21T07:06:06.974Z,965.24
2018-11-21T07:07:07.024Z,965.26
2018-11-21T07:08:07.075Z,965.21
2018-11-21T07:09:07.090Z,965.26
2018-11-21T07:10:07.124Z,965.27
2018-11-21T07:11:07.161Z,965.22
2018-11-21T07:12:07.225Z,965.21
2018-11-21T07:13:10.926Z,965.23
2018-11-21T07:14:07.416Z,965.25
2018-11-21T07:15:07.341Z,965.29
2018-11-21T07:16:07.390Z,965.35
2018-11-21T07:17:07.396Z,965.36
2018-11-21T07:18:07.431Z,965.37
2018-11-21T07:19:07.476Z,965.40
2018-11-21T07:20:07.500Z,965.44
2018-11-21T07:21:07.605Z,965.49
2018-11-21T07:22:07.583Z,965.47
2018-11-21T07:23:07.613Z,965.56
2018-11-21T07:24:07.649Z,965.54
2018-11-21T07:25:07.697Z,965.51
2018-11-21T07:26:07.747Z,965.55
2018-11-21T07:27:07.760Z,965.58
2018-11-21T07:28:12.919Z,965.59
2018-11-21T07:29:07.874Z,965.63
2018-11-21T07:30:07.885Z,965.64
2018-11-21T07:31:07.964Z,965.69
2018-11-21T07:32:07.980Z,965.68
2018-11-21T07:33:07.987Z,965.73
2018-11-21T07:34:08.041Z,965.74
2018-11-21T07:35:08.068Z,965.77
2018-11-21T07:36:08.119Z,965.72
2018-11-21T07:37:08.163Z,965.71
2018-11-21T07:38:08.177Z,965.67
2018-11-21T07:39:08.214Z,965.68
2018-11-21T07:40:08.251Z,965.71
2018-11-21T07:41:08.297Z,965.66
2018-11-21T07:42:08.355Z,965.66
2018-11-21T07:43:08.397Z,965.69
2018-11-21T07:44:08.437Z,965.74
2018-11-21T07:45:08.442Z,965.70
2018-11-21T07:46:08.518Z,965.73
2018-11-21T07:47:08.528Z,965.73
2018-11-21T07:48:08.557Z,965.73
2018-11-21T07:49:08.601Z,965.74
2018-11-21T07:50:08.634Z,965.70
2018-11-21T07:51:08.694Z,965.72
2018-11-21T07:52:08.715Z,965.69
2018-11-21T07:53:08.897Z,965.73
2018-11-21T07:54:08.787Z,965.74
2018-11-21T07:55:08.824Z,965.78
2018-11-21T07:56:08.867Z,965.76
2018-11-21T07:57:08.915Z,965.77
2018-11-21T07:58:08.966Z,965.78
2018-11-21T07:59:08.983Z,965.74
2018-11-21T08:00:09.028Z,965.75
2018-11-21T08:01:09.081Z,965.80
2018-11-21T08:02:09.092Z,965.77
2018-11-21T08:03:09.138Z,965.84
2018-11-21T08:04:09.172Z,965.84
2018-11-21T08:05:09.211Z,965.80
2018-11-21T08:06:09.273Z,965.82
2018-11-21T08:07:09.302Z,965.85
2018-11-21T08:08:09.322Z,965.86
2018-11-21T08:09:09.384Z,965.88
2018-11-21T08:10:09.398Z,965.88
2018-11-21T08:11:09.440Z,965.90
2018-11-21T08:12:09.501Z,965.93
2018-11-21T08:13:09.518Z,965.95
2018-11-21T08:14:09.592Z,965.91
2018-11-21T08:15:09.595Z,965.95
2018-11-21T08:16:09.640Z,965.91
2018-11-21T08:17:09.669Z,965.88
2018-11-21T08:18:09.804Z,965.92
2018-11-21T08:19:09.791Z,965.92
2018-11-21T08:20:09.787Z,965.91
2018-11-21T08:21:09.832Z,965.97
2018-11-21T08:22:09.865Z,966.00
2018-11-21T08:23:09.900Z,966.05
2018-11-21T08:24:09.977Z,966.08
2018-11-21T08:25:09.992Z,966.10
2018-11-21T08:26:10.019Z,966.10
2018-11-21T08:27:10.060Z,966.15
2018-11-21T08:28:10.107Z,966.14
2018-11-21T08:29:10.170Z,966.11
2018-11-21T08:30:10.174Z,966.03
2018-11-21T08:31:10.240Z,965.99
2018-11-21T08:32:10.253Z,965.96
2018-11-21T08:33:10.293Z,965.95
2018-11-21T08:34:10.330Z,965.93
2018-11-21T08:35:10.370Z,965.93
2018-11-21T08:36:10.928Z,965.94
2018-11-21T08:37:10.466Z,965.92
2018-11-21T08:38:10.484Z,965.89
2018-11-21T08:39:10.529Z,965.98
2018-11-21T08:40:10.569Z,966.02
2018-11-21T08:41:10.626Z,966.07
2018-11-21T08:42:10.668Z,966.15
2018-11-21T08:43:10.773Z,966.06
2018-11-21T08:44:10.723Z,966.08
2018-11-21T08:45:10.758Z,966.02
2018-11-21T08:46:10.811Z,966.04
2018-11-21T08:47:10.864Z,966.00
2018-11-21T08:48:10.924Z,966.02
2018-11-21T08:49:10.917Z,966.02
2018-11-21T08:50:10.955Z,966.01
2018-11-21T08:51:10.993Z,965.99
2018-11-21T08:52:11.047Z,965.98
2018-11-21T08:53:11.098Z,965.95
2018-11-21T08:54:11.128Z,965.97
2018-11-21T08:55:11.164Z,965.99
2018-11-21T08:56:11.230Z,966.04
2018-11-21T08:57:11.250Z,966.07
2018-11-21T08:58:11.268Z,966.08
2018-11-21T08:59:11.314Z,966.13
2018-11-21T09:00:11.352Z,966.16
2018-11-21T09:01:11.420Z,966.13
2018-11-21T09:02:11.424Z,966.13
2018-11-21T09:03:11.474Z,966.15
2018-11-21T09:04:11.526Z,966.14
2018-11-21T09:05:11.561Z,966.16
2018-11-21T09:06:11.588Z,966.16
2018-11-21T09:07:11.630Z,966.19
2018-11-21T09:08:11.765Z,966.22
2018-11-21T09:09:11.725Z,966.22
2018-11-21T09:10:11.740Z,966.25
2018-11-21T09:11:11.781Z,966.26
2018-11-21T09:12:15.314Z,966.30
2018-11-21T09:13:11.898Z,966.31
2018-11-21T09:14:11.899Z,966.37
2018-11-21T09:15:11.941Z,966.37
2018-11-21T09:16:11.977Z,966.43
2018-11-21T09:17:12.017Z,966.41
2018-11-21T09:18:12.086Z,966.45
2018-11-21T09:19:12.100Z,966.42
2018-11-21T09:20:12.136Z,966.42
2018-11-21T09:21:12.199Z,966.43
2018-11-21T09:22:12.217Z,966.43
2018-11-21T09:23:12.290Z,966.46
2018-11-21T09:24:12.329Z,966.43
2018-11-21T09:25:12.336Z,966.50
2018-11-21T09:26:12.373Z,966.52
2018-11-21T09:27:12.417Z,966.52
2018-11-21T09:28:12.470Z,966.50
2018-11-21T09:29:12.525Z,966.48
2018-11-21T09:30:12.538Z,966.44
2018-11-21T09:31:12.579Z,966.51
2018-11-21T09:32:12.616Z,966.53
2018-11-21T09:33:12.678Z,966.52
2018-11-21T09:34:12.716Z,966.55
2018-11-21T09:35:12.744Z,966.56
2018-11-21T09:36:12.777Z,966.61
2018-11-21T09:37:12.826Z,966.67
2018-11-21T09:38:12.864Z,966.69
2018-11-21T09:39:12.916Z,966.66
2018-11-21T09:40:12.943Z,966.68
2018-11-21T09:41:12.977Z,966.68
2018-11-21T09:42:13.015Z,966.70
2018-11-21T09:43:13.058Z,966.70
2018-11-21T09:44:13.127Z,966.72
2018-11-21T09:45:13.147Z,966.68
2018-11-21T09:46:17.216Z,966.69
2018-11-21T09:47:13.222Z,966.67
2018-11-21T09:48:13.261Z,966.72
2018-11-21T09:49:13.312Z,966.73
2018-11-21T09:50:13.366Z,966.69
2018-11-21T09:51:13.380Z,966.72
2018-11-21T09:52:13.422Z,966.74
2018-11-21T09:53:13.458Z,966.76
2018-11-21T09:54:13.507Z,966.78
2018-11-21T09:55:13.568Z,966.80
2018-11-21T09:56:13.641Z,966.83
2018-11-21T09:57:13.629Z,966.80
2018-11-21T09:58:13.674Z,966.81
2018-11-21T09:59:13.707Z,966.78
2018-11-21T10:00:13.758Z,966.75
2018-11-21T10:01:13.806Z,966.77
2018-11-21T10:02:13.827Z,966.75
2018-11-21T10:03:13.870Z,966.75
2018-11-21T10:04:13.909Z,966.75
2018-11-21T10:05:13.951Z,966.77
2018-11-21T10:06:14.027Z,966.78
2018-11-21T10:07:14.039Z,966.75
2018-11-21T10:08:14.072Z,966.76
2018-11-21T10:09:14.127Z,966.77
2018-11-21T10:10:14.156Z,966.80
2018-11-21T10:11:14.212Z,966.76
2018-11-21T10:12:14.257Z,966.77
2018-11-21T10:13:14.278Z,966.77
2018-11-21T10:14:14.351Z,966.77
2018-11-21T10:15:14.359Z,966.76
2018-11-21T10:16:14.407Z,966.76
2018-11-21T10:17:14.443Z,966.71
2018-11-21T10:18:14.482Z,966.71
2018-11-21T10:19:14.563Z,966.70
2018-11-21T10:20:14.564Z,966.75
2018-11-21T10:21:14.607Z,966.73
2018-11-21T10:22:14.643Z,966.77
2018-11-21T10:23:14.694Z,966.76
2018-11-21T10:24:14.767Z,966.80
2018-11-21T10:25:14.768Z,966.81
2018-11-21T10:26:14.817Z,966.79
2018-11-21T10:27:14.850Z,966.79
2018-11-21T10:28:15.049Z,966.76
2018-11-21T10:29:14.936Z,966.76
2018-11-21T10:30:14.973Z,966.78
2018-11-21T10:31:15.019Z,966.80
2018-11-21T10:32:15.069Z,966.78
2018-11-21T10:33:15.117Z,966.83
2018-11-21T10:34:15.138Z,966.84
2018-11-21T10:35:15.179Z,966.81
2018-11-21T10:36:15.222Z,966.79
2018-11-21T10:37:15.300Z,966.81
2018-11-21T10:38:15.304Z,966.81
2018-11-21T10:39:15.355Z,966.79
2018-11-21T10:40:15.396Z,966.77
2018-11-21T10:41:15.425Z,966.78
2018-11-21T10:42:15.488Z,966.81
2018-11-21T10:43:15.513Z,966.78
2018-11-21T10:44:15.547Z,966.79
2018-11-21T10:45:15.615Z,966.76
2018-11-21T10:46:15.647Z,966.77
2018-11-21T10:47:15.672Z,966.78
2018-11-21T10:48:15.714Z,966.82
2018-11-21T10:49:15.759Z,966.86
2018-11-21T10:50:15.820Z,966.83
2018-11-21T10:51:15.838Z,966.86
2018-11-21T10:52:15.886Z,966.86
2018-11-21T10:53:15.922Z,966.91
2018-11-21T10:54:15.972Z,966.89
2018-11-21T10:55:16.032Z,966.91
2018-11-21T10:56:16.039Z,966.91
2018-11-21T10:57:16.089Z,966.89
2018-11-21T10:58:16.123Z,966.92
2018-11-21T10:59:16.171Z,966.89
2018-11-21T11:00:16.344Z,966.84
2018-11-21T11:01:16.261Z,966.88
2018-11-21T11:02:16.318Z,966.86
2018-11-21T11:03:16.334Z,966.86
2018-11-21T11:04:16.379Z,966.85
2018-11-21T11:05:16.413Z,966.86
2018-11-21T11:06:16.474Z,966.85
2018-11-21T11:07:16.495Z,966.78
2018-11-21T11:08:16.533Z,966.81
2018-11-21T11:09:16.926Z,966.81
2018-11-21T11:10:16.617Z,966.83
2018-11-21T11:11:16.674Z,966.86
2018-11-21T11:12:16.740Z,966.89
2018-11-21T11:13:16.738Z,966.88
2018-11-21T11:14:16.790Z,966.89
2018-11-21T11:15:16.820Z,966.88
2018-11-21T11:16:16.902Z,966.86
2018-11-21T11:17:16.932Z,966.90
2018-11-21T11:18:16.947Z,966.90
2018-11-21T11:19:16.988Z,966.90
2018-11-21T11:20:17.026Z,966.93
2018-11-21T11:21:17.064Z,966.93
2018-11-21T11:22:17.133Z,966.95
2018-11-21T11:23:17.184Z,966.94
2018-11-21T11:24:17.189Z,966.89
2018-11-21T11:25:17.232Z,966.93
2018-11-21T11:26:17.283Z,966.94
2018-11-21T11:27:17.324Z,966.90
2018-11-21T11:28:17.387Z,966.96
2018-11-21T11:29:17.422Z,966.97
2018-11-21T11:30:17.441Z,967.02
2018-11-21T11:31:17.473Z,967.05
2018-11-21T11:32:17.531Z,967.05
2018-11-21T11:33:17.587Z,967.05
2018-11-21T11:34:17.647Z,967.05
2018-11-21T11:35:17.648Z,967.03
2018-11-21T11:36:17.684Z,967.04
2018-11-21T11:37:17.725Z,967.04
2018-11-21T11:38:17.769Z,967.09
2018-11-21T11:39:17.843Z,967.10
2018-11-21T11:40:17.856Z,967.11
2018-11-21T11:41:17.942Z,967.08
2018-11-21T11:42:17.937Z,967.07
2018-11-21T11:43:17.976Z,967.05
2018-11-21T11:44:18.039Z,967.05
2018-11-21T11:45:18.066Z,967.03
2018-11-21T11:46:18.117Z,967.04
2018-11-21T11:47:18.136Z,967.09
2018-11-21T11:48:18.263Z,967.14
2018-11-21T11:49:18.224Z,967.13
2018-11-21T11:50:18.264Z,967.15
2018-11-21T11:51:18.320Z,967.15
2018-11-21T11:52:18.354Z,967.17
2018-11-21T11:53:18.397Z,967.26
2018-11-21T11:54:18.423Z,967.25
2018-11-21T11:55:18.483Z,967.25
2018-11-21T11:56:18.535Z,967.24
2018-11-21T11:57:18.559Z,967.29
2018-11-21T11:58:18.593Z,967.33
2018-11-21T11:59:18.631Z,967.29
2018-11-21T12:00:18.676Z,967.30
2018-11-21T12:01:18.741Z,967.32
2018-11-21T12:02:18.760Z,967.35
2018-11-21T12:03:18.799Z,967.39
2018-11-21T12:04:18.845Z,967.35
2018-11-21T12:05:18.878Z,967.40
2018-11-21T12:06:18.951Z,967.42
2018-11-21T12:07:18.991Z,967.43
2018-11-21T12:08:19.018Z,967.47
2018-11-21T12:09:19.059Z,967.49
2018-11-21T12:10:19.084Z,967.47
2018-11-21T12:11:19.131Z,967.50
2018-11-21T12:12:19.186Z,967.47
2018-11-21T12:13:19.254Z,967.47
2018-11-21T12:14:19.247Z,967.44
2018-11-21T12:15:19.297Z,967.48
2018-11-21T12:16:19.371Z,967.46
2018-11-21T12:17:19.374Z,967.47
2018-11-21T12:18:19.411Z,967.44
2018-11-21T12:19:19.455Z,967.40
2018-11-21T12:20:19.601Z,967.43
2018-11-21T12:21:19.563Z,967.41
2018-11-21T12:22:19.576Z,967.39
2018-11-21T12:23:19.619Z,967.39
2018-11-21T12:24:19.666Z,967.43
2018-11-21T12:25:19.710Z,967.40
2018-11-21T12:26:19.768Z,967.42
2018-11-21T12:27:19.804Z,967.43
2018-11-21T12:28:19.835Z,967.44
2018-11-21T12:29:19.877Z,967.49